EDW64G LSZH-VCBI
Flight info
| Callsign | EDW64G |
|---|---|
| Flight time | N/A |
| Altitude | 36000 |
| Route | VEBIT T53 GERSA DCT SOSON DCT ODINA DCT EVULI/N0484F370 DCT LODPA DCT BELIX UM728 SALUN N705 BOPIX N710 TAKRI M720 FYM M872 EVANO/N0491F390 M872 PMA Y214 RAPMA DCT DEGNO DCT ULONO DCT GOBRO L425 ASPUX UL425 APUNA/N0487F410 UL425 TVM N640 BIKOK BIKOK1A |
| Aircraft | A359/H-SABDE2E3GHIJ2J3J4J5M1P2RWXYZ/LB1D1 |
Departure
| Time | N/A |
|---|---|
| Airport | Zürich Airport (LSZH) |
Arrival
| Time | 2026-04-25 05:59 |
|---|---|
| Airport | Bandaranaike International Colombo Airport (VCBI) |
| Time | Latitude | Longitude | Altitude | Speed | Heading |
|---|---|---|---|---|---|
| 2026-04-25 05:28 | 8.44267 | 77.21245 | 40908 ft | 498 kts | 99° |
| 2026-04-25 05:29 | 8.43489 | 77.28194 | 40914 ft | 498 kts | 98° |
| 2026-04-25 05:29 | 8.42710 | 77.35138 | 40904 ft | 498 kts | 98° |
| 2026-04-25 05:30 | 8.41931 | 77.42091 | 40909 ft | 498 kts | 99° |
| 2026-04-25 05:30 | 8.41148 | 77.49035 | 40910 ft | 498 kts | 98° |
| 2026-04-25 05:31 | 8.40365 | 77.55988 | 40912 ft | 498 kts | 99° |
| 2026-04-25 05:31 | 8.39580 | 77.62931 | 40913 ft | 498 kts | 99° |
| 2026-04-25 05:32 | 8.38794 | 77.69877 | 40904 ft | 498 kts | 99° |
| 2026-04-25 05:32 | 8.38009 | 77.76815 | 40905 ft | 498 kts | 99° |
| 2026-04-25 05:33 | 8.37221 | 77.83760 | 40904 ft | 498 kts | 99° |
| 2026-04-25 05:33 | 8.36432 | 77.90699 | 40904 ft | 498 kts | 99° |
| 2026-04-25 05:34 | 8.35642 | 77.97643 | 40901 ft | 497 kts | 99° |
| 2026-04-25 05:34 | 8.34853 | 78.04574 | 40899 ft | 497 kts | 99° |
| 2026-04-25 05:35 | 8.34061 | 78.11508 | 40898 ft | 497 kts | 99° |
| 2026-04-25 05:35 | 8.33269 | 78.18434 | 40899 ft | 497 kts | 99° |
| 2026-04-25 05:35 | 8.32873 | 78.21897 | 40707 ft | 496 kts | 99° |
| 2026-04-25 05:36 | 8.32478 | 78.25349 | 40065 ft | 495 kts | 99° |
| 2026-04-25 05:36 | 8.32080 | 78.28815 | 39276 ft | 499 kts | 99° |
| 2026-04-25 05:36 | 8.31684 | 78.32262 | 38494 ft | 503 kts | 99° |
| 2026-04-25 05:36 | 8.31280 | 78.35780 | 37661 ft | 504 kts | 99° |
| 2026-04-25 05:37 | 8.30877 | 78.39290 | 37029 ft | 502 kts | 99° |
| 2026-04-25 05:37 | 8.30477 | 78.42780 | 36385 ft | 500 kts | 99° |
| 2026-04-25 05:37 | 8.30074 | 78.46275 | 35583 ft | 502 kts | 99° |
| 2026-04-25 05:37 | 8.29670 | 78.49784 | 34845 ft | 503 kts | 99° |
| 2026-04-25 05:38 | 8.29266 | 78.53288 | 34274 ft | 502 kts | 99° |
| 2026-04-25 05:38 | 8.28822 | 78.56787 | 33976 ft | 503 kts | 102° |
| 2026-04-25 05:38 | 8.27887 | 78.60160 | 33645 ft | 495 kts | 115° |
| 2026-04-25 05:38 | 8.26246 | 78.63185 | 32904 ft | 489 kts | 126° |
| 2026-04-25 05:39 | 8.24294 | 78.65996 | 32074 ft | 490 kts | 127° |
| 2026-04-25 05:39 | 8.22297 | 78.68785 | 31201 ft | 492 kts | 127° |
| 2026-04-25 05:39 | 8.20288 | 78.71601 | 30159 ft | 497 kts | 127° |
| 2026-04-25 05:39 | 8.18266 | 78.74451 | 29051 ft | 501 kts | 126° |
| 2026-04-25 05:40 | 8.16239 | 78.77319 | 28110 ft | 501 kts | 126° |
| 2026-04-25 05:40 | 8.14225 | 78.80173 | 27288 ft | 497 kts | 126° |
| 2026-04-25 05:40 | 8.12232 | 78.83002 | 26502 ft | 492 kts | 125° |
| 2026-04-25 05:40 | 8.10257 | 78.85806 | 25756 ft | 487 kts | 125° |
| 2026-04-25 05:41 | 8.08304 | 78.88579 | 25036 ft | 482 kts | 124° |
| 2026-04-25 05:41 | 8.06372 | 78.91322 | 24339 ft | 477 kts | 124° |
| 2026-04-25 05:41 | 8.04459 | 78.94038 | 23644 ft | 472 kts | 124° |
| 2026-04-25 05:41 | 8.02563 | 78.96730 | 22874 ft | 467 kts | 124° |
| 2026-04-25 05:42 | 8.00699 | 78.99377 | 22172 ft | 460 kts | 124° |
| 2026-04-25 05:42 | 7.98855 | 79.01996 | 21396 ft | 456 kts | 124° |
| 2026-04-25 05:42 | 7.97034 | 79.04581 | 20730 ft | 449 kts | 124° |
| 2026-04-25 05:42 | 7.95240 | 79.07127 | 20084 ft | 441 kts | 124° |
| 2026-04-25 05:43 | 7.93475 | 79.09631 | 19446 ft | 435 kts | 124° |
| 2026-04-25 05:43 | 7.91730 | 79.12106 | 18811 ft | 431 kts | 125° |
| 2026-04-25 05:43 | 7.90002 | 79.14558 | 18175 ft | 427 kts | 125° |
| 2026-04-25 05:43 | 7.88289 | 79.16987 | 17462 ft | 423 kts | 125° |
| 2026-04-25 05:44 | 7.86594 | 79.19392 | 16778 ft | 418 kts | 125° |
| 2026-04-25 05:44 | 7.84921 | 79.21763 | 16116 ft | 413 kts | 125° |
| 2026-04-25 05:44 | 7.83264 | 79.24110 | 15463 ft | 409 kts | 125° |
| 2026-04-25 05:44 | 7.81643 | 79.26407 | 14826 ft | 405 kts | 125° |
| 2026-04-25 05:45 | 7.79994 | 79.28742 | 14154 ft | 402 kts | 125° |
| 2026-04-25 05:45 | 7.78378 | 79.31031 | 13480 ft | 400 kts | 125° |
| 2026-04-25 05:45 | 7.76796 | 79.33272 | 12793 ft | 396 kts | 124° |
| 2026-04-25 05:45 | 7.75209 | 79.35518 | 12152 ft | 391 kts | 124° |
| 2026-04-25 05:46 | 7.73641 | 79.37738 | 11562 ft | 386 kts | 124° |
| 2026-04-25 05:46 | 7.72091 | 79.39933 | 10965 ft | 382 kts | 124° |
| 2026-04-25 05:46 | 7.70582 | 79.42067 | 10788 ft | 365 kts | 124° |
| 2026-04-25 05:46 | 7.69146 | 79.44098 | 10684 ft | 347 kts | 124° |
| 2026-04-25 05:47 | 7.67777 | 79.46035 | 10543 ft | 331 kts | 124° |
| 2026-04-25 05:47 | 7.66475 | 79.47879 | 10436 ft | 315 kts | 124° |
| 2026-04-25 05:47 | 7.65231 | 79.49639 | 10311 ft | 302 kts | 124° |
| 2026-04-25 05:47 | 7.64041 | 79.51324 | 10189 ft | 289 kts | 124° |
| 2026-04-25 05:48 | 7.62894 | 79.52946 | 10042 ft | 280 kts | 124° |
| 2026-04-25 05:48 | 7.61765 | 79.54545 | 9704 ft | 283 kts | 124° |
| 2026-04-25 05:48 | 7.60609 | 79.56182 | 9327 ft | 288 kts | 124° |
| 2026-04-25 05:48 | 7.59448 | 79.57826 | 8980 ft | 288 kts | 124° |
| 2026-04-25 05:49 | 7.58289 | 79.59465 | 8664 ft | 286 kts | 124° |
| 2026-04-25 05:49 | 7.57138 | 79.61091 | 8323 ft | 284 kts | 124° |
| 2026-04-25 05:49 | 7.55997 | 79.62704 | 7998 ft | 282 kts | 124° |
| 2026-04-25 05:49 | 7.54860 | 79.64311 | 7663 ft | 281 kts | 124° |
| 2026-04-25 05:50 | 7.53729 | 79.65910 | 7333 ft | 279 kts | 124° |
| 2026-04-25 05:50 | 7.52604 | 79.67500 | 7006 ft | 278 kts | 124° |
| 2026-04-25 05:50 | 7.51482 | 79.69084 | 6681 ft | 277 kts | 124° |
| 2026-04-25 05:50 | 7.50369 | 79.70657 | 6357 ft | 275 kts | 124° |
| 2026-04-25 05:51 | 7.49260 | 79.72222 | 6017 ft | 274 kts | 124° |
| 2026-04-25 05:51 | 7.48157 | 79.73781 | 5686 ft | 273 kts | 124° |
| 2026-04-25 05:51 | 7.47057 | 79.75336 | 5355 ft | 272 kts | 124° |
| 2026-04-25 05:51 | 7.45958 | 79.76889 | 5040 ft | 271 kts | 124° |
| 2026-04-25 05:52 | 7.44884 | 79.78405 | 4889 ft | 261 kts | 124° |
| 2026-04-25 05:52 | 7.43834 | 79.79886 | 4605 ft | 259 kts | 124° |
| 2026-04-25 05:52 | 7.42791 | 79.81359 | 4317 ft | 259 kts | 124° |
| 2026-04-25 05:52 | 7.41748 | 79.82833 | 4007 ft | 258 kts | 124° |
| 2026-04-25 05:53 | 7.40710 | 79.84300 | 3769 ft | 257 kts | 125° |
| 2026-04-25 05:53 | 7.39669 | 79.85762 | 3562 ft | 256 kts | 125° |
| 2026-04-25 05:53 | 7.38581 | 79.87176 | 3375 ft | 252 kts | 128° |
| 2026-04-25 05:53 | 7.37497 | 79.88534 | 3167 ft | 246 kts | 128° |
| 2026-04-25 05:54 | 7.36422 | 79.89869 | 2923 ft | 246 kts | 128° |
| 2026-04-25 05:54 | 7.35360 | 79.91192 | 2711 ft | 239 kts | 128° |
| 2026-04-25 05:54 | 7.33344 | 79.93694 | 2384 ft | 222 kts | 128° |
| 2026-04-25 05:55 | 7.32398 | 79.94879 | 2258 ft | 212 kts | 128° |
| 2026-04-25 05:55 | 7.31419 | 79.95921 | 2208 ft | 198 kts | 139° |
| 2026-04-25 05:55 | 7.30272 | 79.96629 | 2007 ft | 191 kts | 158° |
| 2026-04-25 05:55 | 7.28991 | 79.96804 | 1750 ft | 185 kts | 188° |
| 2026-04-25 05:56 | 7.27855 | 79.96238 | 1506 ft | 189 kts | 221° |
| 2026-04-25 05:56 | 7.26896 | 79.95300 | 1438 ft | 195 kts | 225° |
| 2026-04-25 05:56 | 7.25926 | 79.94382 | 1371 ft | 183 kts | 217° |
| 2026-04-25 05:56 | 7.24980 | 79.93642 | 1306 ft | 161 kts | 217° |
| 2026-04-25 05:57 | 7.24130 | 79.93003 | 1194 ft | 147 kts | 216° |
| 2026-04-25 05:57 | 7.23330 | 79.92383 | 945 ft | 143 kts | 218° |
| 2026-04-25 05:57 | 7.22558 | 79.91785 | 766 ft | 142 kts | 218° |
| 2026-04-25 05:57 | 7.21760 | 79.91192 | 631 ft | 143 kts | 217° |
| 2026-04-25 05:58 | 7.20968 | 79.90571 | 457 ft | 144 kts | 219° |
| 2026-04-25 05:58 | 7.20175 | 79.89956 | 293 ft | 144 kts | 217° |
| 2026-04-25 05:58 | 7.19372 | 79.89342 | 111 ft | 146 kts | 217° |
| 2026-04-25 05:58 | 7.18583 | 79.88749 | 41 ft | 127 kts | 217° |
| 2026-04-25 05:59 | 7.18090 | 79.88369 | 41 ft | 52 kts | 217° |
| 2026-04-25 05:59 | 7.17946 | 79.88258 | 42 ft | 14 kts | 217° |
| 2026-04-25 05:59 | 7.17888 | 79.88232 | 42 ft | 9 kts | 175° |
| 2026-04-25 05:59 | 7.17839 | 79.88271 | 42 ft | 11 kts | 130° |
| 2026-04-25 06:00 | 7.17782 | 79.88334 | 39 ft | 12 kts | 150° |
| 2026-04-25 06:00 | 7.17731 | 79.88317 | 40 ft | 9 kts | 214° |
| 2026-04-25 06:00 | 7.17675 | 79.88275 | 40 ft | 11 kts | 215° |
| 2026-04-25 06:00 | 7.17609 | 79.88293 | 40 ft | 12 kts | 136° |
| 2026-04-25 06:01 | 7.17562 | 79.88351 | 40 ft | 8 kts | 124° |
| 2026-04-25 06:01 | 7.17568 | 79.88386 | 40 ft | 5 kts | 51° |
| 2026-04-25 06:01 | 7.17599 | 79.88414 | 40 ft | 2 kts | 39° |
| 2026-04-25 06:02 | 7.17601 | 79.88416 | 40 ft | 1 kts | 38° |
| 2026-04-25 06:02 | 7.17605 | 79.88419 | 40 ft | 0 kts | 37° |